Time;durP1;ratioP1;P1;durP2;ratioP2;P2;SDS_P1;SDS_P2;PMS_P1;PMS_P2;Temp;Humidity;BMP_temperature;BMP_pressure;BME280_temperature;BME280_humidity;BME280_pressure;Samples;Min_cycle;Max_cycle;Signal;HPM_P1;HPM_P2
2021/08/25 00:00:43;;;;;;;3.90;3.50;;;;;;;17.10;65.50;101766.19;5067936;28;20431;-53
2021/08/25 00:03:09;;;;;;;3.45;2.72;;;;;;;17.09;65.65;101764.44;5051178;28;20038;-51
2021/08/25 00:05:34;;;;;;;3.47;2.90;;;;;;;17.10;65.49;101768.00;5050446;28;20121;-51
2021/08/25 00:08:00;;;;;;;4.32;3.20;;;;;;;17.09;65.50;101761.78;5069872;28;20529;-51
2021/08/25 00:10:25;;;;;;;3.53;2.47;;;;;;;17.08;65.49;101754.69;5056299;28;20036;-52
2021/08/25 00:12:50;;;;;;;5.07;3.00;;;;;;;17.09;65.44;101755.56;5072856;28;20020;-50
2021/08/25 00:15:16;;;;;;;4.05;3.33;;;;;;;17.09;65.44;101752.91;5072529;28;20028;-51
2021/08/25 00:17:41;;;;;;;4.95;3.08;;;;;;;17.08;65.46;101753.81;5071479;28;20029;-50
2021/08/25 00:20:07;;;;;;;2.85;2.60;;;;;;;17.06;65.69;101751.19;5072617;28;20031;-50
2021/08/25 00:22:32;;;;;;;3.63;2.95;;;;;;;17.08;65.46;101753.81;5070852;28;20032;-51
2021/08/25 00:24:58;;;;;;;3.67;3.00;;;;;;;17.05;65.47;101750.28;5072601;28;20016;-51
2021/08/25 00:27:23;;;;;;;3.22;2.92;;;;;;;17.05;64.91;101744.97;5070728;28;20437;-50
2021/08/25 00:29:48;;;;;;;3.70;3.30;;;;;;;17.03;65.35;101749.41;5071922;28;20059;-50
2021/08/25 00:32:13;;;;;;;4.63;3.40;;;;;;;17.04;65.34;101740.50;5071575;28;20487;-50
2021/08/25 00:34:39;;;;;;;3.80;3.25;;;;;;;17.02;65.41;101737.00;5041220;28;20024;-51
2021/08/25 00:37:04;;;;;;;4.40;3.20;;;;;;;17.02;65.46;101745.00;5072206;28;20098;-51
2021/08/25 00:39:29;;;;;;;3.55;3.25;;;;;;;17.01;65.55;101745.88;5071331;28;20062;-52
2021/08/25 00:41:56;;;;;;;3.33;2.90;;;;;;;17.00;65.42;101738.81;5072325;28;20439;-52
2021/08/25 00:44:21;;;;;;;3.35;3.05;;;;;;;17.01;65.34;101743.22;5069376;28;20028;-51
2021/08/25 00:46:47;;;;;;;4.10;3.40;;;;;;;17.00;65.48;101746.81;5072039;28;20548;-51
2021/08/25 00:49:14;;;;;;;4.97;2.95;;;;;;;16.99;65.32;101739.72;5072368;28;20094;-51
2021/08/25 00:51:42;;;;;;;3.67;2.70;;;;;;;16.99;65.52;101739.72;5053872;28;20127;-52
2021/08/25 00:54:07;;;;;;;4.13;2.90;;;;;;;16.98;65.48;101727.31;5069490;28;20614;-51
2021/08/25 00:56:33;;;;;;;4.35;3.47;;;;;;;16.98;65.38;101727.31;5072279;28;20032;-52
2021/08/25 00:58:58;;;;;;;4.20;3.30;;;;;;;16.96;65.55;101737.13;5052225;28;20484;-52
2021/08/25 01:01:39;;;;;;;3.90;2.92;;;;;;;16.98;65.52;101734.44;5072068;28;20024;-52
2021/08/25 01:04:14;;;;;;;4.10;3.05;;;;;;;16.95;65.24;101734.47;5049812;28;20430;-52
2021/08/25 01:06:39;;;;;;;4.38;3.58;;;;;;;16.95;65.27;101734.47;5069867;28;20033;-52
2021/08/25 01:09:05;;;;;;;6.50;3.50;;;;;;;16.95;65.38;101738.03;5071652;28;20074;-52
2021/08/25 01:11:35;;;;;;;4.88;2.65;;;;;;;16.93;65.45;101735.41;5071600;28;20029;-52
2021/08/25 01:14:01;;;;;;;3.30;2.37;;;;;;;16.92;65.27;101728.31;5068962;28;20032;-52
2021/08/25 01:16:27;;;;;;;4.28;2.90;;;;;;;16.93;65.33;101745.16;5071476;28;20742;-52
2021/08/25 01:18:55;;;;;;;3.67;2.88;;;;;;;16.92;65.35;101733.66;5071455;28;20072;-52
2021/08/25 01:21:20;;;;;;;2.85;2.45;;;;;;;16.92;65.32;101727.44;5070699;28;20063;-52
2021/08/25 01:23:46;;;;;;;4.40;2.95;;;;;;;16.91;65.46;101725.69;5069471;28;20034;-52
2021/08/25 01:26:14;;;;;;;6.78;3.53;;;;;;;16.90;65.25;101723.91;5053323;28;20032;-52
2021/08/25 01:28:46;;;;;;;3.90;2.88;;;;;;;16.89;65.38;101724.81;5071738;28;20082;-52
2021/08/25 01:31:11;;;;;;;3.60;2.55;;;;;;;16.90;65.46;101718.56;5054382;28;20074;-52
2021/08/25 01:33:37;;;;;;;3.50;2.78;;;;;;;16.87;65.43;101716.84;5054863;28;20028;-52
2021/08/25 01:36:02;;;;;;;4.28;3.30;;;;;;;16.89;65.43;101716.81;5071137;28;20025;-52
2021/08/25 01:38:33;;;;;;;4.93;3.20;;;;;;;16.88;65.69;101699.09;5070621;28;20077;-52
2021/08/25 01:40:58;;;;;;;4.18;2.78;;;;;;;16.86;65.44;101700.88;5070955;28;20024;-52
2021/08/25 01:43:24;;;;;;;3.55;3.10;;;;;;;16.86;65.40;101701.78;5070966;28;20029;-52
2021/08/25 01:45:49;;;;;;;3.78;3.33;;;;;;;16.86;65.29;101703.56;5069632;28;20123;-52
2021/08/25 01:48:14;;;;;;;4.70;3.38;;;;;;;16.86;65.17;101700.88;5071015;28;20020;-52
2021/08/25 01:50:40;;;;;;;4.20;3.30;;;;;;;16.83;65.37;101685.84;5070712;28;20040;-52
2021/08/25 01:53:05;;;;;;;4.50;3.60;;;;;;;16.85;65.16;101699.13;5070907;28;20035;-52
2021/08/25 01:55:30;;;;;;;4.40;2.88;;;;;;;16.84;65.15;101694.72;5070515;28;20036;-52
2021/08/25 01:57:56;;;;;;;3.03;2.67;;;;;;;16.83;65.21;101685.84;5071019;28;20059;-52
2021/08/25 02:00:21;;;;;;;3.88;3.38;;;;;;;16.83;65.39;101698.28;5070880;28;20027;-52
2021/08/25 02:02:47;;;;;;;4.28;3.60;;;;;;;16.82;65.21;101694.75;5070884;28;20811;-52
2021/08/25 02:05:12;;;;;;;4.53;3.75;;;;;;;16.84;65.14;101684.94;5068579;28;20070;-52
2021/08/25 02:07:37;;;;;;;3.90;3.13;;;;;;;16.87;65.12;101679.56;5070218;28;20070;-52
2021/08/25 02:10:04;;;;;;;4.38;3.67;;;;;;;16.83;65.08;101676.97;5052656;28;20400;-52
2021/08/25 02:12:29;;;;;;;3.30;2.88;;;;;;;16.83;64.94;101674.31;5070881;28;20384;-52
2021/08/25 02:14:54;;;;;;;4.82;3.22;;;;;;;16.84;65.15;101676.09;5070237;28;20027;-52
2021/08/25 02:17:20;;;;;;;3.85;3.08;;;;;;;16.82;65.12;101668.13;5070243;28;20028;-52
2021/08/25 02:19:45;;;;;;;3.47;3.17;;;;;;;16.86;65.01;101667.16;5070157;28;20435;-52
2021/08/25 02:22:10;;;;;;;4.53;3.28;;;;;;;16.86;64.82;101660.94;5070275;28;21403;-52
2021/08/25 02:24:36;;;;;;;3.67;3.10;;;;;;;16.86;64.77;101661.81;5069749;28;20031;-52
2021/08/25 02:27:01;;;;;;;6.35;3.30;;;;;;;16.82;64.89;101661.91;5068988;28;20067;-52
2021/08/25 02:29:26;;;;;;;4.78;3.50;;;;;;;16.84;64.99;101660.09;5070657;28;20028;-52
2021/08/25 02:31:51;;;;;;;4.55;3.50;;;;;;;16.83;64.71;101658.31;5053515;28;20028;-52
2021/08/25 02:34:17;;;;;;;3.83;3.22;;;;;;;16.83;64.90;101663.66;5068773;28;20028;-52
2021/08/25 02:36:42;;;;;;;3.63;3.03;;;;;;;16.77;65.09;101660.22;5069292;28;20387;-52
2021/08/25 02:39:07;;;;;;;4.00;3.53;;;;;;;16.80;64.81;101667.25;5070392;28;20040;-52
2021/08/25 02:41:33;;;;;;;5.30;3.47;;;;;;;16.77;65.06;101657.53;5069973;28;20028;-52
2021/08/25 02:43:58;;;;;;;4.78;2.80;;;;;;;16.78;64.73;101653.97;5069843;28;20020;-52
2021/08/25 02:46:23;;;;;;;4.32;3.40;;;;;;;16.79;64.71;101653.06;5070279;28;20143;-52
2021/08/25 02:48:49;;;;;;;4.30;3.15;;;;;;;16.78;64.79;101658.44;5069511;28;20026;-52
2021/08/25 02:51:14;;;;;;;4.68;3.58;;;;;;;16.75;64.89;101651.38;5070002;28;20021;-52
2021/08/25 02:53:39;;;;;;;3.33;2.90;;;;;;;16.74;64.91;101654.06;5053784;28;20017;-52
2021/08/25 02:56:05;;;;;;;4.30;3.30;;;;;;;16.71;65.24;101644.38;5070100;28;20028;-52
2021/08/25 02:58:30;;;;;;;3.53;3.17;;;;;;;16.74;64.43;101641.63;5069950;28;20024;-52
2021/08/25 03:00:55;;;;;;;4.82;3.40;;;;;;;16.70;64.96;101642.59;5068035;28;20029;-52
2021/08/25 03:03:21;;;;;;;5.47;3.38;;;;;;;16.73;64.58;101646.97;5068848;28;20040;-52
2021/08/25 03:05:46;;;;;;;4.13;3.42;;;;;;;16.69;64.85;101640.84;5067450;28;20028;-52
2021/08/25 03:08:11;;;;;;;4.35;3.17;;;;;;;16.71;64.74;101638.16;5068681;28;20476;-52
2021/08/25 03:10:37;;;;;;;3.55;3.08;;;;;;;16.70;65.00;101637.25;5069583;28;20025;-52
2021/08/25 03:13:02;;;;;;;3.47;3.13;;;;;;;16.70;64.86;101639.06;5069935;28;20035;-52
2021/08/25 03:15:28;;;;;;;4.43;3.13;;;;;;;16.65;64.99;101637.38;5069119;28;20016;-52
2021/08/25 03:17:53;;;;;;;4.45;3.22;;;;;;;16.67;64.70;101632.88;5069489;28;20476;-52
2021/08/25 03:20:18;;;;;;;3.85;3.15;;;;;;;16.63;64.82;101631.19;5069812;28;20648;-52
2021/08/25 03:22:44;;;;;;;4.85;3.15;;;;;;;16.66;64.66;101624.91;5050558;28;20428;-52
2021/08/25 03:25:09;;;;;;;5.03;3.70;;;;;;;16.66;64.77;101624.91;5069135;28;20484;-52
2021/08/25 03:27:35;;;;;;;3.13;2.83;;;;;;;16.66;64.71;101625.78;5055147;28;20047;-53
2021/08/25 03:30:00;;;;;;;4.35;3.45;;;;;;;16.67;64.61;101621.34;5070072;28;20215;-52
2021/08/25 03:32:26;;;;;;;5.00;3.60;;;;;;;16.66;64.65;101616.91;5069495;28;20016;-52
2021/08/25 03:34:51;;;;;;;3.72;3.00;;;;;;;16.65;64.62;101616.06;5067763;28;20082;-52
2021/08/25 03:37:17;;;;;;;4.30;3.30;;;;;;;16.63;64.69;101611.66;5068719;28;20032;-53
2021/08/25 03:39:42;;;;;;;5.28;3.42;;;;;;;16.63;64.60;101603.66;5069503;28;20043;-52
2021/08/25 03:42:08;;;;;;;3.38;2.83;;;;;;;16.61;64.77;101605.50;5069127;28;20052;-52
2021/08/25 03:44:35;;;;;;;5.05;3.20;;;;;;;16.60;64.60;101604.59;5072226;28;20024;-52
2021/08/25 03:47:01;;;;;;;4.93;3.72;;;;;;;16.59;64.69;101604.63;5073242;28;20024;-52
2021/08/25 03:49:26;;;;;;;4.50;3.30;;;;;;;16.57;64.69;101598.47;5072229;28;20404;-52
2021/08/25 03:51:51;;;;;;;3.50;3.20;;;;;;;16.59;64.46;101602.84;5072642;28;20039;-52
2021/08/25 03:54:17;;;;;;;4.05;3.35;;;;;;;16.57;64.63;101602.00;5072985;28;20020;-52
2021/08/25 03:56:42;;;;;;;4.00;3.47;;;;;;;16.55;64.72;101596.69;5056157;28;20028;-52
2021/08/25 03:59:07;;;;;;;4.15;3.25;;;;;;;16.57;64.72;101591.34;5055071;28;20025;-52
2021/08/25 04:01:33;;;;;;;4.50;3.30;;;;;;;16.52;64.79;101596.78;5072800;28;20016;-52
2021/08/25 04:04:00;;;;;;;4.25;3.30;;;;;;;16.50;64.80;101598.56;5072855;28;20021;-52
2021/08/25 04:06:26;;;;;;;3.65;2.97;;;;;;;16.50;64.84;101595.91;5070914;28;20056;-52
2021/08/25 04:08:51;;;;;;;4.22;3.17;;;;;;;16.49;64.82;101596.84;5054679;28;20437;-52
2021/08/25 04:11:18;;;;;;;4.25;3.22;;;;;;;16.48;64.82;101595.09;5072961;28;20024;-52
2021/08/25 04:13:43;;;;;;;5.85;4.30;;;;;;;16.48;64.76;101595.09;5072296;28;20070;-52
2021/08/25 04:16:08;;;;;;;4.07;3.25;;;;;;;16.49;64.79;101601.25;5072684;28;20028;-52
2021/08/25 04:18:34;;;;;;;4.47;3.25;;;;;;;16.48;64.79;101595.09;5054504;28;20495;-52
2021/08/25 04:20:59;;;;;;;3.65;3.20;;;;;;;16.46;64.85;101591.56;5034844;28;20040;-52
2021/08/25 04:23:24;;;;;;;4.38;3.58;;;;;;;16.43;64.92;101586.28;5073020;28;20056;-52
2021/08/25 04:25:50;;;;;;;6.28;3.17;;;;;;;16.45;64.82;101589.81;5072302;28;20051;-53
2021/08/25 04:28:15;;;;;;;5.82;3.30;;;;;;;16.43;64.89;101591.63;5054824;28;20012;-52
2021/08/25 04:30:40;;;;;;;4.32;3.22;;;;;;;16.43;64.93;101588.94;5072476;28;20500;-52
2021/08/25 04:33:06;;;;;;;3.67;2.97;;;;;;;16.41;64.87;101578.31;5072230;28;20454;-52
2021/08/25 04:35:32;;;;;;;5.75;3.75;;;;;;;16.41;64.89;101582.78;5072084;28;20097;-52
2021/08/25 04:37:57;;;;;;;3.83;3.10;;;;;;;16.40;64.96;101586.34;5071088;28;20496;-52
2021/08/25 04:40:22;;;;;;;7.50;3.85;;;;;;;16.40;64.95;101586.34;5072555;28;20019;-52
2021/08/25 04:42:47;;;;;;;4.53;3.45;;;;;;;16.39;64.98;101589.91;5070925;28;20077;-52
2021/08/25 04:45:14;;;;;;;3.92;3.40;;;;;;;16.39;64.98;101584.59;5071717;28;20025;-52
2021/08/25 04:47:39;;;;;;;4.75;2.92;;;;;;;16.38;64.89;101586.38;5053743;28;20017;-52
2021/08/25 04:50:05;;;;;;;4.50;3.60;;;;;;;16.38;64.93;101588.16;5072361;28;20490;-52
2021/08/25 04:52:30;;;;;;;3.75;3.28;;;;;;;16.37;64.83;101581.09;5072186;28;20475;-52
2021/08/25 04:54:55;;;;;;;3.95;3.22;;;;;;;16.36;64.95;101580.22;5070923;28;20487;-52
2021/08/25 04:57:21;;;;;;;4.47;3.38;;;;;;;16.36;64.90;101579.31;5071493;28;20042;-52
2021/08/25 04:59:46;;;;;;;3.53;2.90;;;;;;;16.37;64.97;101581.09;5053321;28;20063;-52
2021/08/25 05:02:11;;;;;;;3.90;3.45;;;;;;;16.36;64.72;101577.53;5071238;28;20024;-52
2021/08/25 05:04:37;;;;;;;4.53;3.42;;;;;;;16.33;64.98;101574.94;5053136;28;20028;-52
2021/08/25 05:07:02;;;;;;;3.30;3.00;;;;;;;16.35;65.02;101566.94;5070841;28;20028;-52
2021/08/25 05:09:27;;;;;;;4.70;3.20;;;;;;;16.35;65.02;101578.47;5071658;28;20016;-52
2021/08/25 05:11:53;;;;;;;3.67;3.30;;;;;;;16.34;65.03;101575.81;5071792;28;20047;-52
2021/08/25 05:14:18;;;;;;;3.78;3.40;;;;;;;16.34;64.86;101576.69;5070990;28;20480;-52
2021/08/25 05:16:44;;;;;;;4.78;3.22;;;;;;;16.32;64.80;101578.50;5071912;28;20094;-52
2021/08/25 05:19:09;;;;;;;3.75;3.40;;;;;;;16.33;64.83;101576.72;5071473;28;20294;-52
2021/08/25 05:21:34;;;;;;;3.33;3.03;;;;;;;16.29;64.98;101574.13;5071465;28;20021;-52
2021/08/25 05:24:01;;;;;;;4.78;3.10;;;;;;;16.29;64.98;101576.78;5070519;28;20381;-52
2021/08/25 05:26:28;;;;;;;4.03;3.20;;;;;;;16.29;64.85;101573.25;5071931;28;20032;-52
2021/08/25 05:28:53;;;;;;;3.65;3.30;;;;;;;16.33;64.90;101566.06;5070861;28;20017;-52
2021/08/25 05:31:18;;;;;;;3.30;3.00;;;;;;;16.32;64.79;101567.88;5071504;28;20027;-52
2021/08/25 05:33:44;;;;;;;4.47;3.15;;;;;;;16.31;64.80;101568.78;5071528;28;20383;-52
2021/08/25 05:36:09;;;;;;;3.35;3.05;;;;;;;16.33;64.84;101568.72;5071163;28;20090;-52
2021/08/25 05:38:34;;;;;;;2.92;2.63;;;;;;;16.32;64.74;101559.88;5071177;28;20020;-52
2021/08/25 05:40:59;;;;;;;5.72;2.90;;;;;;;16.33;64.68;101558.97;5071134;28;20028;-52
2021/08/25 05:43:25;;;;;;;5.18;3.15;;;;;;;16.30;64.82;101559.03;5053574;28;20028;-52
2021/08/25 05:45:50;;;;;;;2.42;2.08;;;;;;;16.34;64.70;101562.53;5070930;28;20063;-52
2021/08/25 05:48:15;;;;;;;4.35;3.20;;;;;;;16.34;64.73;101560.72;5071064;28;20015;-52
2021/08/25 05:50:41;;;;;;;4.13;2.72;;;;;;;16.35;64.71;101564.25;5070946;28;20495;-52
2021/08/25 05:53:07;;;;;;;4.18;3.05;;;;;;;16.34;64.75;101559.84;5069793;28;20029;-52
2021/08/25 05:55:32;;;;;;;3.95;3.00;;;;;;;16.31;64.72;101554.59;5070802;28;20024;-52
2021/08/25 05:57:58;;;;;;;4.03;3.15;;;;;;;16.33;64.76;101560.75;5070442;28;20020;-52
2021/08/25 06:00:23;;;;;;;3.22;2.92;;;;;;;16.33;64.76;101563.41;5070529;28;20103;-52
2021/08/25 06:02:48;;;;;;;3.47;3.10;;;;;;;16.33;64.64;101552.75;5052832;28;20031;-52
2021/08/25 06:05:14;;;;;;;3.60;3.15;;;;;;;16.32;64.63;101551.91;5070488;28;20029;-52
2021/08/25 06:07:40;;;;;;;4.47;2.85;;;;;;;16.30;64.78;101551.03;5070245;28;20091;-52
2021/08/25 06:10:07;;;;;;;3.85;2.60;;;;;;;16.30;64.76;101553.69;5071086;28;20446;-51
2021/08/25 06:12:32;;;;;;;3.80;3.08;;;;;;;16.29;64.78;101546.63;5055801;28;20020;-52
2021/08/25 06:14:57;;;;;;;4.03;3.05;;;;;;;16.29;64.76;101542.19;5070153;28;20036;-52
2021/08/25 06:17:23;;;;;;;3.83;2.95;;;;;;;16.29;64.68;101544.84;5070366;28;20020;-54
2021/08/25 06:19:48;;;;;;;3.15;2.85;;;;;;;16.29;64.79;101539.53;5054029;28;20024;-51
2021/08/25 06:22:13;;;;;;;3.38;2.85;;;;;;;16.29;64.73;101536.88;5070416;28;20107;-51
2021/08/25 06:24:39;;;;;;;3.33;2.45;;;;;;;16.28;64.83;101535.09;5054057;28;20039;-52
2021/08/25 06:27:04;;;;;;;3.60;2.70;;;;;;;16.27;64.91;101530.69;5070329;28;20052;-51
2021/08/25 06:29:29;;;;;;;4.47;3.35;;;;;;;16.27;64.94;101522.69;5066881;28;20107;-51
2021/08/25 06:31:55;;;;;;;5.30;3.15;;;;;;;16.26;64.93;101526.28;5068097;28;20032;-52
2021/08/25 06:34:20;;;;;;;4.65;3.30;;;;;;;16.26;64.79;101531.59;5069928;28;20116;-51
2021/08/25 06:36:45;;;;;;;3.42;2.92;;;;;;;16.26;64.80;101520.94;5068387;28;20075;-52
2021/08/25 06:39:11;;;;;;;3.80;2.88;;;;;;;16.24;65.05;101528.06;5070510;28;20012;-53
2021/08/25 06:41:36;;;;;;;4.22;3.15;;;;;;;16.23;64.93;101531.66;5070211;28;20024;-53
2021/08/25 06:44:02;;;;;;;3.35;2.63;;;;;;;16.23;64.98;101526.31;5068821;28;20032;-53
2021/08/25 06:46:27;;;;;;;3.75;2.80;;;;;;;16.23;65.02;101526.31;5069599;28;20027;-53
2021/08/25 06:48:52;;;;;;;4.47;3.20;;;;;;;16.22;65.11;101521.03;5052198;28;20032;-54
2021/08/25 06:51:18;;;;;;;3.35;3.00;;;;;;;16.22;64.92;101513.03;5069882;28;20059;-52
2021/08/25 06:53:43;;;;;;;3.20;2.90;;;;;;;16.20;65.06;101510.41;5069891;28;20605;-54
2021/08/25 06:56:08;;;;;;;3.90;2.67;;;;;;;16.21;64.93;101505.97;5068813;28;20051;-54
2021/08/25 06:58:34;;;;;;;4.13;3.17;;;;;;;16.22;65.04;101508.63;5068322;28;20012;-53
2021/08/25 07:00:59;;;;;;;3.25;2.95;;;;;;;16.21;65.08;101511.31;5070372;28;20017;-53
2021/08/25 07:03:24;;;;;;;3.35;2.97;;;;;;;16.18;65.12;101506.91;5051927;28;20020;-53
2021/08/25 07:05:50;;;;;;;3.95;2.80;;;;;;;16.18;65.24;101501.59;5036288;28;20418;-53
2021/08/25 07:08:15;;;;;;;3.00;2.70;;;;;;;16.21;65.14;101498.84;5053008;28;20029;-53
2021/08/25 07:10:40;;;;;;;3.33;2.58;;;;;;;16.18;65.16;101501.59;5070313;28;20506;-53
2021/08/25 07:13:06;;;;;;;4.28;2.72;;;;;;;16.15;65.32;101494.53;5069976;28;20480;-54
2021/08/25 07:15:31;;;;;;;3.70;3.10;;;;;;;16.18;65.30;101503.38;5069590;28;20017;-53
2021/08/25 07:17:56;;;;;;;3.67;3.20;;;;;;;16.16;65.31;101500.72;5067880;28;20020;-53
2021/08/25 07:20:22;;;;;;;3.67;3.22;;;;;;;16.17;65.26;101494.50;5068679;28;20063;-54
2021/08/25 07:22:47;;;;;;;2.88;2.63;;;;;;;16.15;65.36;101501.66;5056029;28;20442;-54
2021/08/25 07:25:12;;;;;;;3.03;2.55;;;;;;;16.15;65.33;101497.19;5055539;28;20024;-54
2021/08/25 07:27:39;;;;;;;3.55;2.80;;;;;;;16.15;65.27;101496.31;5068164;28;20028;-53
2021/08/25 07:30:05;;;;;;;2.53;2.30;;;;;;;16.15;65.37;101501.66;5069353;28;20036;-53
2021/08/25 07:32:31;;;;;;;3.28;2.97;;;;;;;16.14;65.36;101492.78;5069613;28;20025;-54
2021/08/25 07:34:57;;;;;;;2.95;2.65;;;;;;;16.16;65.30;101495.41;5069328;28;20024;-54
2021/08/25 07:37:22;;;;;;;3.30;2.67;;;;;;;16.16;65.28;101498.97;5052913;28;20029;-53
2021/08/25 07:39:47;;;;;;;3.42;2.70;;;;;;;16.16;65.49;101492.75;5067622;28;20518;-54
2021/08/25 07:42:13;;;;;;;3.45;3.10;;;;;;;16.15;65.46;101496.31;5053912;28;20024;-54
2021/08/25 07:44:38;;;;;;;3.75;2.67;;;;;;;16.15;65.30;101494.53;5069322;28;20036;-53
2021/08/25 07:47:03;;;;;;;3.92;3.17;;;;;;;16.16;65.43;101498.97;5069307;28;20414;-53
2021/08/25 07:49:30;;;;;;;3.30;2.35;;;;;;;16.15;65.38;101493.66;5068458;28;20021;-53
2021/08/25 07:51:56;;;;;;;3.67;2.47;;;;;;;16.14;65.37;101489.25;5053253;28;20387;-53
2021/08/25 07:54:21;;;;;;;3.17;2.30;;;;;;;16.14;65.61;101486.59;5052289;28;20028;-53
2021/08/25 07:56:46;;;;;;;3.47;2.50;;;;;;;16.11;65.63;101484.84;5069510;28;20360;-53
2021/08/25 07:59:11;;;;;;;3.90;2.53;;;;;;;16.13;65.59;101476.84;5067763;28;20047;-53
2021/08/25 08:01:37;;;;;;;3.08;2.50;;;;;;;16.15;65.31;101475.03;5068800;28;20099;-53
2021/08/25 08:04:02;;;;;;;4.88;2.92;;;;;;;16.15;65.59;101480.38;5069045;28;20033;-54
2021/08/25 08:06:27;;;;;;;3.40;2.95;;;;;;;16.15;65.50;101475.03;5069657;28;20021;-54
2021/08/25 08:08:53;;;;;;;4.10;2.78;;;;;;;16.15;65.62;101475.03;5068133;28;20100;-53
2021/08/25 08:11:18;;;;;;;3.42;2.90;;;;;;;16.12;65.70;101469.78;5068526;28;20051;-53
2021/08/25 08:13:43;;;;;;;4.30;2.72;;;;;;;16.14;65.44;101465.31;5068959;28;20025;-53
2021/08/25 08:16:09;;;;;;;3.03;2.50;;;;;;;16.12;65.51;101459.13;5066212;28;20059;-53
2021/08/25 08:18:38;;;;;;;4.20;2.97;;;;;;;16.12;65.61;101462.69;5037390;28;20028;-53
2021/08/25 08:21:03;;;;;;;4.25;2.78;;;;;;;16.13;65.64;101458.22;5068069;28;20408;-51
2021/08/25 08:23:30;;;;;;;3.38;2.83;;;;;;;16.14;65.66;101463.50;5050190;28;20016;-54
2021/08/25 08:25:56;;;;;;;2.97;2.67;;;;;;;16.15;65.64;101459.06;5069067;28;20040;-53
2021/08/25 08:28:21;;;;;;;5.18;3.08;;;;;;;16.14;65.64;101452.00;5067571;28;20055;-54
2021/08/25 08:30:47;;;;;;;3.47;3.13;;;;;;;16.15;65.52;101445.78;5068392;28;20059;-53
2021/08/25 08:33:12;;;;;;;3.65;2.92;;;;;;;16.14;65.60;101449.34;5054300;28;20131;-53
2021/08/25 08:35:37;;;;;;;4.70;3.13;;;;;;;16.15;65.61;101440.44;5056009;28;20471;-54
2021/08/25 08:38:06;;;;;;;5.93;2.97;;;;;;;16.15;65.91;101437.78;5072348;28;20044;-53
2021/08/25 08:40:32;;;;;;;4.82;3.58;;;;;;;16.16;65.69;101435.09;5070745;28;20391;-53
2021/08/25 08:43:11;;;;;;;4.43;2.90;;;;;;;16.14;65.70;101442.22;5070916;28;20045;-54
2021/08/25 08:45:41;;;;;;;3.30;2.90;;;;;;;16.14;65.83;101430.72;5068278;28;20025;-54
2021/08/25 08:48:08;;;;;;;3.67;2.80;;;;;;;16.15;65.79;101438.66;5069806;28;20503;-53
2021/08/25 08:50:35;;;;;;;4.50;3.45;;;;;;;16.15;65.70;101432.47;5072335;28;20023;-53
2021/08/25 08:53:01;;;;;;;3.25;2.80;;;;;;;16.13;65.78;101418.31;5069978;28;20017;-54
2021/08/25 08:55:26;;;;;;;4.93;2.80;;;;;;;16.14;65.61;101428.91;5071589;28;20432;-53
2021/08/25 08:57:51;;;;;;;3.53;2.90;;;;;;;16.14;65.67;101425.41;5072540;28;20507;-54
2021/08/25 09:00:17;;;;;;;4.10;2.83;;;;;;;16.10;65.72;101413.91;5072386;28;20038;-54
2021/08/25 09:02:44;;;;;;;5.53;3.33;;;;;;;16.14;65.78;101415.59;5072439;28;20399;-53
2021/08/25 09:05:17;;;;;;;3.72;2.85;;;;;;;16.14;65.89;101417.41;5070450;28;20391;-54
2021/08/25 09:08:00;;;;;;;2.90;2.63;;;;;;;16.15;65.90;101411.19;5068530;28;20058;-53
2021/08/25 09:10:28;;;;;;;4.28;2.90;;;;;;;16.15;65.80;101408.50;5072052;28;20146;-54
2021/08/25 09:13:00;;;;;;;3.65;2.95;;;;;;;16.15;65.77;101404.03;5072014;28;20111;-54
2021/08/25 09:15:28;;;;;;;3.85;2.63;;;;;;;16.16;65.69;101397.84;5071328;28;20020;-53
2021/08/25 09:18:00;;;;;;;4.95;2.88;;;;;;;16.14;65.81;101391.66;5053837;28;20107;-54
2021/08/25 09:20:27;;;;;;;5.18;3.40;;;;;;;16.16;65.75;101392.53;5069968;28;20115;-53
2021/08/25 09:23:18;;;;;;;4.38;2.88;;;;;;;16.18;65.78;101388.94;5071662;28;20028;-53
2021/08/25 09:25:44;;;;;;;;;;;;;;;16.18;65.67;101391.59;5071442;28;20035;-53
2021/08/25 09:28:12;;;;;;;3.15;2.72;;;;;;;16.19;65.78;101390.69;5051540;28;19912;-54
2021/08/25 09:30:59;;;;;;;3.38;2.67;;;;;;;16.18;65.76;101389.81;5071784;28;20020;-53
2021/08/25 09:33:27;;;;;;;3.85;2.22;;;;;;;16.17;65.81;101393.38;5068642;28;20020;-54
2021/08/25 09:36:07;;;;;;;3.53;3.22;;;;;;;16.19;65.79;101386.25;5068971;28;20032;-53
2021/08/25 09:38:34;;;;;;;4.53;2.65;;;;;;;16.19;65.66;101380.94;5071051;28;20107;-53
2021/08/25 09:41:11;;;;;;;3.97;3.03;;;;;;;16.20;65.62;101374.69;5071068;28;20031;-53
2021/08/25 09:43:44;;;;;;;5.05;3.03;;;;;;;16.18;65.77;101376.53;5071475;28;20622;-53
2021/08/25 09:46:22;;;;;;;4.07;3.10;;;;;;;16.20;65.69;101372.03;5068599;28;20698;-53
2021/08/25 09:48:53;;;;;;;4.25;3.03;;;;;;;16.20;65.55;101372.03;5070154;28;20056;-53
2021/08/25 09:51:21;;;;;;;3.05;2.50;;;;;;;16.19;65.62;101364.06;5054981;28;20667;-54
2021/08/25 09:53:48;;;;;;;2.95;2.65;;;;;;;16.21;65.64;101360.47;5069360;28;20036;-54
2021/08/25 09:56:27;;;;;;;3.30;2.97;;;;;;;16.21;65.53;101359.59;5070844;28;20017;-54
2021/08/25 09:58:54;;;;;;;3.45;2.88;;;;;;;16.21;65.57;101357.81;5069100;28;20028;-54
2021/08/25 10:01:20;;;;;;;3.00;2.55;;;;;;;16.22;65.73;101353.38;5036148;28;20475;-53
2021/08/25 10:03:45;;;;;;;3.50;2.95;;;;;;;16.22;65.71;101353.38;5070519;28;20029;-51
2021/08/25 10:06:14;;;;;;;3.17;2.80;;;;;;;16.23;65.60;101355.09;5070590;28;20063;-54
2021/08/25 10:08:39;;;;;;;3.15;2.63;;;;;;;16.22;65.96;101351.59;5069957;28;20187;-53
2021/08/25 10:11:07;;;;;;;3.58;2.83;;;;;;;16.23;65.69;101344.47;5070795;28;20518;-54
2021/08/25 10:13:32;;;;;;;3.30;2.70;;;;;;;16.22;65.71;101340.94;5070300;28;20048;-54
2021/08/25 10:15:58;;;;;;;3.90;2.97;;;;;;;16.25;65.74;101345.31;5070502;28;20024;-54
2021/08/25 10:18:24;;;;;;;3.28;2.50;;;;;;;16.24;65.97;101339.09;5053475;28;20477;-52
2021/08/25 10:20:50;;;;;;;4.10;2.80;;;;;;;16.26;65.86;101336.41;5070514;28;20039;-52
2021/08/25 10:23:15;;;;;;;4.47;3.25;;;;;;;16.25;66.04;101337.34;5052366;28;20063;-52
2021/08/25 10:26:06;;;;;;;3.22;2.90;;;;;;;16.25;65.68;101327.56;5068305;28;20052;-51
2021/08/25 10:29:00;;;;;;;4.45;2.97;;;;;;;16.26;65.84;101320.44;5067932;28;20028;-52
2021/08/25 10:31:45;;;;;;;2.83;2.53;;;;;;;16.26;65.94;101324.00;5070412;28;20028;-52
2021/08/25 10:34:15;;;;;;;5.45;3.00;;;;;;;16.25;66.07;101311.59;5068883;28;20039;-52
2021/08/25 10:36:40;;;;;;;4.43;2.90;;;;;;;16.25;65.96;101306.28;5069940;28;20035;-52
2021/08/25 10:39:35;;;;;;;3.83;2.88;;;;;;;16.26;65.83;101301.81;5070267;28;20404;-52
2021/08/25 10:42:00;;;;;;;2.97;2.67;;;;;;;16.28;65.95;101292.88;5070086;28;20449;-52
2021/08/25 10:44:38;;;;;;;3.10;2.78;;;;;;;16.26;66.01;101288.50;5069530;28;20032;-52
2021/08/25 10:47:08;;;;;;;3.85;2.70;;;;;;;16.28;66.03;101278.72;5069996;28;20024;-52
2021/08/25 10:49:34;;;;;;;3.00;2.30;;;;;;;16.27;66.02;101283.16;5069857;28;20103;-52
2021/08/25 10:52:15;;;;;;;3.63;2.55;;;;;;;16.28;65.93;101271.59;5070286;28;20384;-52
2021/08/25 10:54:45;;;;;;;4.00;2.92;;;;;;;16.28;66.22;101268.94;5069284;28;20028;-52
2021/08/25 10:57:12;;;;;;;3.50;2.50;;;;;;;16.29;66.14;101265.38;5069690;28;20033;-52
2021/08/25 10:59:38;;;;;;;2.47;2.28;;;;;;;16.29;65.99;101260.06;5053338;28;20048;-52
2021/08/25 11:02:03;;;;;;;3.30;2.75;;;;;;;16.29;66.01;101249.41;5067488;28;20048;-52
2021/08/25 11:04:29;;;;;;;3.50;3.03;;;;;;;16.29;65.96;101244.09;5067406;28;20263;-52
2021/08/25 11:06:58;;;;;;;3.90;3.00;;;;;;;16.32;65.91;101247.56;5053462;28;20025;-52
2021/08/25 11:09:46;;;;;;;5.10;2.80;;;;;;;16.32;65.90;101237.81;5069833;28;20028;-52
2021/08/25 11:12:16;;;;;;;3.95;2.67;;;;;;;16.31;66.01;101232.53;5067934;28;20058;-52
2021/08/25 11:14:48;;;;;;;3.15;2.60;;;;;;;16.33;66.14;101238.66;5051456;28;20517;-52
2021/08/25 11:17:24;;;;;;;3.58;3.10;;;;;;;16.33;65.91;101231.56;5065605;28;20028;-52
2021/08/25 11:19:57;;;;;;;3.38;3.00;;;;;;;16.32;65.90;101223.63;5068308;28;20027;-52
2021/08/25 11:22:34;;;;;;;3.88;2.70;;;;;;;16.33;65.93;101220.91;5052006;28;20029;-52